| time (UTC) | temp F | wind direction | speed MPH | gust MPH | rain 1hr in | rain 24hr in | rain mn in | humidity % | barometer mb |
| 20260504130308 | 37 | 280 | 14.0 | 0.0 | 0.00 | 0.00 | 0.00 | 69 | 995.0 |
| 20260504120308 | 39 | 270 | 12.0 | 0.0 | 0.00 | 0.00 | 0.00 | 60 | 995.0 |
| 20260504110307 | 39 | 260 | 14.0 | 0.0 | 0.00 | 0.00 | 0.00 | 64 | 995.0 |
| 20260504100307 | 39 | 230 | 12.0 | 0.0 | 0.00 | 0.00 | 0.00 | 60 | 995.0 |
| 20260504080307 | 35 | 150 | 13.0 | 0.0 | 0.00 | 0.00 | 0.00 | 69 | 995.0 |
| 20260504070308 | 35 | 150 | 12.0 | 0.0 | 0.00 | 0.00 | 0.00 | 59 | 995.0 |
| 20260504050307 | 35 | 150 | 13.0 | 0.0 | 0.00 | 0.00 | 0.00 | 59 | 996.0 |
| 20260504043309 | 33 | 150 | 9.0 | 0.0 | 0.00 | 0.00 | 0.00 | 64 | 997.0 |
| 20260504040307 | 32 | 130 | 9.0 | 0.0 | 0.00 | 0.00 | 0.00 | 69 | 997.0 |
| 20260504033306 | 30 | 140 | 8.0 | 0.0 | 0.00 | 0.00 | 0.00 | 74 | 998.0 |
| 20260504030307 | 28 | 150 | 7.0 | 0.0 | 0.00 | 0.00 | 0.00 | 79 | 998.0 |
| 20260504023308 | 30 | 140 | 8.0 | 0.0 | 0.00 | 0.00 | 0.00 | 74 | 998.0 |
| 20260504020307 | 28 | 140 | 8.0 | 0.0 | 0.00 | 0.00 | 0.00 | 79 | 999.0 |
| 20260504013308 | 30 | 140 | 8.0 | 0.0 | 0.00 | 0.00 | 0.00 | 74 | 999.0 |
| 20260504010308 | 30 | 150 | 7.0 | 0.0 | 0.00 | 0.00 | 0.00 | 74 | 1000.0 |
| 20260504003307 | 32 | 150 | 10.0 | 0.0 | 0.00 | 0.00 | 0.00 | 69 | 1000.0 |
| 20260504000308 | 30 | 150 | 8.0 | 0.0 | 0.00 | 0.00 | 0.00 | 74 | 1000.0 |
| 20260503233306 | 30 | 150 | 5.0 | 0.0 | 0.00 | 0.00 | 0.00 | 74 | 1001.0 |
| 20260503230308 | 32 | 130 | 3.0 | 0.0 | 0.00 | 0.00 | 0.00 | 69 | 1001.0 |
| 20260503223308 | 32 | 150 | 6.0 | 0.0 | 0.00 | 0.00 | 0.00 | 74 | 1001.0 |
| 20260503220308 | 32 | 160 | 8.0 | 0.0 | 0.00 | 0.00 | 0.00 | 69 | 1002.0 |
| 20260503213306 | 32 | 160 | 6.0 | 0.0 | 0.00 | 0.00 | 0.00 | 69 | 1002.0 |
| 20260503210306 | 33 | 160 | 7.0 | 0.0 | 0.00 | 0.00 | 0.00 | 64 | 1002.0 |
| 20260503203306 | 33 | 160 | 7.0 | 0.0 | 0.00 | 0.00 | 0.00 | 64 | 1003.0 |
| 20260503200309 | 33 | 170 | 7.0 | 0.0 | 0.00 | 0.00 | 0.00 | 64 | 1003.0 |
| 20260503193308 | 33 | 140 | 7.0 | 0.0 | 0.00 | 0.00 | 0.00 | 64 | 1003.0 |
| 20260503190310 | 33 | 180 | 6.0 | 0.0 | 0.00 | 0.00 | 0.00 | 64 | 1003.0 |
| 20260503183309 | 33 | 190 | 8.0 | 0.0 | 0.00 | 0.00 | 0.00 | 64 | 1003.0 |
| 20260503180309 | 35 | 180 | 8.0 | 0.0 | 0.00 | 0.00 | 0.00 | 59 | 1003.0 |
| 20260503173308 | 35 | 180 | 9.0 | 0.0 | 0.00 | 0.00 | 0.00 | 59 | 1004.0 |
| 20260503170307 | 35 | 210 | 7.0 | 0.0 | 0.00 | 0.00 | 0.00 | 55 | 1004.0 |
| 20260503150307 | 35 | 220 | 9.0 | 0.0 | 0.00 | 0.00 | 0.00 | 55 | 1005.0 |
| 20260503140308 | 37 | 270 | 5.0 | 0.0 | 0.00 | 0.00 | 0.00 | 55 | 1006.0 |